Terminal Aerodrome Forecast
Issued by NWS Shreveport, LA

Home | Current Version | Previous Version | Text Only | Print | Product List | Glossary On
Versions: 1 2 3 4 5 6 7 8 9 10 11 12 13 14 15
000
FTUS44 KSHV 221100 RRA
TAFLFK
TAF
KLFK 221141Z 2212/2312 04006KT P6SM FEW080 SCT110 SCT250
     FM221500 05008KT P6SM FEW080 BKN110
     FM221700 05007KT P6SM FEW110 SCT250
     FM230100 05005KT P6SM FEW250=

USA.gov is the U.S. government's official web portal to all federal, state and local government web resources and services.